Coonabarabran Namoi Street, Australia
Current Conditions -  °F | °C
As of 8:00 AM on Tuesday 23 Dec 2014 (Local Time) from YSDU Reporting Station
Clear Clear  
Wind Chill: 72°   Ceiling: Unl
Heat Index: 72°   Visibility: 6mi
Dew Point: 70°   Wind: 10mph
Humidity: 94%   Direction: 50°NE
Pressure: 29.94"   Gusts: NA
Location:  31.27°S, 149.27°E
Report Text: YSDU 222100Z AUTO 05009KT 9999 // NCD 22/21 Q1014
Loading
Personal Weather Stations






























Interactive Weather Map New forecast layout! Learn more

10-Day Weather Forecast

Advertisements
Track Severe Weather on mobile